Time;durP1;ratioP1;P1;durP2;ratioP2;P2;SDS_P1;SDS_P2;PMS_P1;PMS_P2;Temp;Humidity;BMP_temperature;BMP_pressure;BME280_temperature;BME280_humidity;BME280_pressure;Samples;Min_cycle;Max_cycle;Signal;HPM_P1;HPM_P2
2022/01/22 00:01:51;;;;;;;1.92;1.15;;;21.90;59.70;;;;;;7840995;28;20182;-54
2022/01/22 00:05:36;;;;;;;2.40;1.20;;;21.90;59.70;;;;;;7840932;28;20188;-51
2022/01/22 00:09:25;;;;;;;2.83;0.90;;;21.90;59.60;;;;;;7840409;28;20205;-51
2022/01/22 00:17:03;;;;;;;2.45;0.90;;;21.80;59.80;;;;;;7840717;28;20182;-50
2022/01/22 00:20:48;;;;;;;2.65;1.02;;;21.80;59.60;;;;;;7840222;28;20701;-51
2022/01/22 00:24:38;;;;;;;4.13;0.95;;;21.70;59.50;;;;;;7840333;28;20516;-51
2022/01/22 00:28:24;;;;;;;2.58;0.90;;;21.70;59.60;;;;;;7839977;28;20193;-55
2022/01/22 00:32:09;;;;;;;1.65;0.65;;;21.70;59.50;;;;;;7840085;28;20224;-51
2022/01/22 00:35:54;;;;;;;1.23;0.80;;;21.60;59.50;;;;;;7839492;28;20205;-52
2022/01/22 00:39:40;;;;;;;1.80;0.80;;;21.60;59.50;;;;;;7839994;28;20332;-55
2022/01/22 00:43:26;;;;;;;2.75;0.88;;;21.60;59.60;;;;;;7839724;28;20185;-51
2022/01/22 00:47:11;;;;;;;3.75;0.80;;;21.60;59.70;;;;;;7839831;28;20273;-54
2022/01/22 00:50:57;;;;;;;1.77;0.80;;;21.50;59.60;;;;;;7839180;28;20571;-53
2022/01/22 00:54:43;;;;;;;0.82;0.68;;;21.50;59.70;;;;;;7839433;28;20162;-54
2022/01/22 00:58:28;;;;;;;1.35;0.68;;;21.50;59.60;;;;;;7839007;28;20244;-55
2022/01/22 01:02:14;;;;;;;3.45;0.70;;;21.50;59.60;;;;;;7839295;28;20174;-51
2022/01/22 01:06:01;;;;;;;2.28;0.80;;;21.40;59.50;;;;;;7839100;28;20270;-54
2022/01/22 01:09:46;;;;;;;0.60;0.60;;;21.40;59.60;;;;;;7838592;28;20628;-53
2022/01/22 01:13:38;;;;;;;0.63;0.63;;;21.40;59.60;;;;;;7838351;28;20719;-51
2022/01/22 01:17:47;;;;;;;0.65;0.50;;;21.40;59.50;;;;;;7838884;28;20200;-53
2022/01/22 01:33:55;;;;;;;0.60;0.43;;;21.30;59.60;;;;;;7838596;28;20178;-52
2022/01/22 01:37:41;;;;;;;1.88;0.40;;;21.30;59.50;;;;;;7838172;28;20767;-52
2022/01/22 01:41:36;;;;;;;0.40;0.40;;;21.20;59.50;;;;;;7838619;28;20173;-50
2022/01/22 01:45:21;;;;;;;0.40;0.40;;;21.20;59.50;;;;;;7838222;28;20664;-54
2022/01/22 01:49:07;;;;;;;2.28;0.50;;;21.20;59.60;;;;;;7837576;28;20198;-50
2022/01/22 01:53:14;;;;;;;0.73;0.50;;;21.20;59.60;;;;;;7838730;28;20567;-50
2022/01/22 02:01:06;;;;;;;0.50;0.30;;;21.10;59.60;;;;;;7838352;28;20181;-51
2022/01/22 02:04:51;;;;;;;0.30;0.30;;;21.10;59.70;;;;;;7838395;28;20181;-51
2022/01/22 02:08:38;;;;;;;1.25;0.50;;;21.10;59.70;;;;;;7837452;28;20300;-54
2022/01/22 02:24:38;;;;;;;2.55;0.60;;;21.00;59.90;;;;;;7837644;28;20260;-55
2022/01/22 02:28:24;;;;;;;2.83;0.50;;;21.00;59.90;;;;;;7837224;28;20213;-52
2022/01/22 02:36:29;;;;;;;0.47;0.25;;;21.00;59.90;;;;;;7837854;28;20261;-54
2022/01/22 02:40:23;;;;;;;0.50;0.38;;;21.00;59.90;;;;;;7837108;28;20205;-54
2022/01/22 02:44:22;;;;;;;0.30;0.20;;;20.90;59.80;;;;;;7837298;28;20209;-52
2022/01/22 02:48:07;;;;;;;0.20;0.20;;;20.90;59.90;;;;;;7837079;28;20205;-55
2022/01/22 02:51:57;;;;;;;2.13;0.30;;;20.90;60.00;;;;;;7837324;28;20212;-55
2022/01/22 02:55:45;;;;;;;2.67;0.40;;;20.90;60.00;;;;;;7837182;28;20166;-51
2022/01/22 02:59:30;;;;;;;1.50;0.30;;;20.90;60.10;;;;;;7838079;28;20675;-52
2022/01/22 03:03:16;;;;;;;0.40;0.30;;;20.90;60.10;;;;;;7842842;28;20548;-53
2022/01/22 03:07:01;;;;;;;0.20;0.20;;;20.90;60.10;;;;;;7842616;28;20216;-55
2022/01/22 03:10:51;;;;;;;0.17;0.10;;;20.80;60.10;;;;;;7842191;28;20282;-53
2022/01/22 03:15:30;;;;;;;0.43;0.30;;;20.80;60.10;;;;;;7842468;28;20166;-54
2022/01/22 03:19:09;;;;;;;0.20;0.20;;;20.80;60.10;;;;;;7841944;28;20220;-53
2022/01/22 03:23:10;;;;;;;1.13;0.20;;;20.80;60.20;;;;;;7842339;28;20171;-54
2022/01/22 03:31:00;;;;;;;0.45;0.30;;;20.80;60.20;;;;;;7842080;28;20679;-55
2022/01/22 03:38:50;;;;;;;0.10;0.10;;;20.80;60.40;;;;;;7842037;28;20198;-55
2022/01/22 03:42:36;;;;;;;0.28;0.25;;;20.70;60.40;;;;;;7841828;28;20201;-54
2022/01/22 03:46:22;;;;;;;0.17;0.17;;;20.70;60.50;;;;;;7841676;28;20189;-50
2022/01/22 03:50:10;;;;;;;1.75;0.20;;;20.70;60.50;;;;;;7841150;28;20584;-52
2022/01/22 03:53:56;;;;;;;0.20;0.20;;;20.60;60.50;;;;;;7841384;28;20182;-51
2022/01/22 03:57:42;;;;;;;0.17;0.15;;;20.60;60.60;;;;;;7840930;28;20198;-50
2022/01/22 04:05:13;;;;;;;0.10;0.10;;;20.60;60.80;;;;;;7841025;28;20209;-55
2022/01/22 04:09:04;;;;;;;0.45;0.10;;;20.60;60.80;;;;;;7840522;28;20200;-50
2022/01/22 04:13:01;;;;;;;0.20;0.20;;;20.60;60.60;;;;;;7840603;28;20296;-52
2022/01/22 04:24:48;;;;;;;1.40;0.43;;;20.50;60.70;;;;;;7840808;28;20182;-50
2022/01/22 04:24:57;;;;;;;0.20;0.20;;;20.50;60.50;;;;;;7840501;28;20809;-50
2022/01/22 04:28:43;;;;;;;0.20;0.20;;;20.50;60.50;;;;;;7839914;28;20564;-56
2022/01/22 04:32:30;;;;;;;0.85;0.30;;;20.50;60.60;;;;;;7840039;28;20260;-54
2022/01/22 04:36:16;;;;;;;0.63;0.30;;;20.50;60.60;;;;;;7840010;28;20570;-52
2022/01/22 04:40:02;;;;;;;2.25;0.40;;;20.50;60.50;;;;;;7839551;28;20202;-50
2022/01/22 04:43:49;;;;;;;0.90;0.40;;;20.40;60.70;;;;;;7839913;28;20682;-54
2022/01/22 04:55:24;;;;;;;0.85;0.70;;;20.40;60.40;;;;;;7840024;28;20166;-56
2022/01/22 04:59:10;;;;;;;0.70;0.60;;;20.50;60.50;;;;;;7839070;28;20201;-55
2022/01/22 05:02:55;;;;;;;0.70;0.70;;;20.50;60.50;;;;;;7839263;28;20186;-53
2022/01/22 05:06:41;;;;;;;0.68;0.52;;;20.50;60.60;;;;;;7839278;28;20213;-55
2022/01/22 05:10:27;;;;;;;0.73;0.73;;;20.50;60.50;;;;;;7838715;28;20292;-52
2022/01/22 05:14:12;;;;;;;0.80;0.50;;;20.50;60.50;;;;;;7839159;28;20540;-54
2022/01/22 05:17:58;;;;;;;0.90;0.60;;;20.50;60.50;;;;;;7838660;28;20194;-54
2022/01/22 05:21:45;;;;;;;0.55;0.50;;;20.50;60.40;;;;;;7838615;28;20227;-52
2022/01/22 05:25:36;;;;;;;1.30;0.70;;;20.50;60.40;;;;;;7837599;28;20279;-52
2022/01/22 05:29:44;;;;;;;0.80;0.60;;;20.50;60.40;;;;;;7818587;28;20233;-53
2022/01/22 05:37:39;;;;;;;0.95;0.70;;;20.50;60.30;;;;;;7806192;28;20217;-54
2022/01/22 05:41:24;;;;;;;0.68;0.40;;;20.50;60.40;;;;;;7813404;28;20828;-52
2022/01/22 05:45:10;;;;;;;0.50;0.50;;;20.50;60.60;;;;;;7838169;28;20189;-51
2022/01/22 05:48:56;;;;;;;0.43;0.40;;;20.50;60.80;;;;;;7836923;28;20210;-53
2022/01/22 05:52:54;;;;;;;3.35;1.00;;;20.50;60.90;;;;;;7838147;28;20202;-50
2022/01/22 06:00:44;;;;;;;5.80;0.60;;;20.50;60.70;;;;;;7837636;28;20221;-50
2022/01/22 06:04:29;;;;;;;1.13;0.73;;;20.50;60.90;;;;;;7810234;28;20197;-50
2022/01/22 06:08:17;;;;;;;5.63;0.90;;;20.50;61.30;;;;;;7806773;28;20726;-52
2022/01/22 06:15:54;;;;;;;5.13;0.70;;;20.40;61.10;;;;;;7838501;28;20186;-52
2022/01/22 06:19:39;;;;;;;15.15;1.00;;;20.40;61.20;;;;;;7837419;28;20275;-51
2022/01/22 06:23:25;;;;;;;11.07;1.50;;;20.40;61.50;;;;;;7813070;28;20183;-50
2022/01/22 06:27:10;;;;;;;7.18;1.00;;;20.50;61.10;;;;;;7806626;28;20633;-51
2022/01/22 06:30:57;;;;;;;11.50;1.08;;;20.40;61.20;;;;;;7807383;28;20310;-50
2022/01/22 06:34:43;;;;;;;8.35;3.45;;;20.40;61.20;;;;;;7808285;28;20182;-52
2022/01/22 06:38:28;;;;;;;8.05;3.92;;;20.50;60.90;;;;;;7812458;28;20556;-51
2022/01/22 06:42:14;;;;;;;9.15;4.32;;;20.40;61.30;;;;;;7812575;28;20229;-53
2022/01/22 06:46:00;;;;;;;10.98;4.25;;;20.40;62.20;;;;;;7812499;28;20711;-51
2022/01/22 06:49:45;;;;;;;6.97;4.05;;;20.40;61.40;;;;;;7811938;28;20210;-55
2022/01/22 06:53:35;;;;;;;19.95;3.60;;;20.40;61.50;;;;;;7835504;28;20197;-53
2022/01/22 06:57:21;;;;;;;17.35;4.40;;;20.30;61.30;;;;;;7831356;28;20236;-51
2022/01/22 07:01:06;;;;;;;13.88;4.90;;;20.40;61.50;;;;;;7811911;28;20175;-53
2022/01/22 07:04:52;;;;;;;12.27;5.88;;;20.30;61.50;;;;;;7841073;28;20194;-52
2022/01/22 07:08:37;;;;;;;29.80;6.73;;;20.40;61.40;;;;;;7838734;28;20514;-50
2022/01/22 07:12:23;;;;;;;11.68;4.40;;;20.20;62.30;;;;;;7821154;28;20242;-50
2022/01/22 07:16:08;;;;;;;17.60;6.03;;;20.20;61.80;;;;;;7811138;28;20237;-50
2022/01/22 07:19:54;;;;;;;18.48;5.20;;;20.30;61.80;;;;;;7811040;28;20229;-53
2022/01/22 07:24:22;;;;;;;10.13;4.20;;;20.40;61.80;;;;;;7813123;28;20187;-50
2022/01/22 07:27:49;;;;;;;21.27;5.28;;;20.40;61.30;;;;;;7810721;28;20206;-54
2022/01/22 07:31:34;;;;;;;13.20;4.10;;;20.40;61.20;;;;;;7810963;28;20289;-50
2022/01/22 07:35:20;;;;;;;10.48;3.83;;;20.40;61.40;;;;;;7810990;28;20179;-52
2022/01/22 07:39:06;;;;;;;10.25;3.85;;;20.30;61.30;;;;;;7810645;28;20850;-53
2022/01/22 07:42:51;;;;;;;12.85;3.90;;;20.40;61.40;;;;;;7810868;28;20321;-52
2022/01/22 07:46:37;;;;;;;7.28;3.58;;;20.40;61.50;;;;;;7823860;28;20285;-52
2022/01/22 07:50:22;;;;;;;9.90;3.47;;;20.40;61.50;;;;;;7814784;28;20233;-49
2022/01/22 07:54:08;;;;;;;5.00;3.40;;;20.40;61.40;;;;;;7810743;28;20665;-49
2022/01/22 07:57:53;;;;;;;7.75;3.28;;;20.30;61.50;;;;;;7810187;28;20211;-50
2022/01/22 08:01:39;;;;;;;7.90;3.63;;;20.30;61.30;;;;;;7810331;28;20194;-52
2022/01/22 08:05:24;;;;;;;5.90;3.25;;;20.40;61.20;;;;;;7810253;28;20183;-50
2022/01/22 08:09:10;;;;;;;17.38;3.55;;;20.30;61.40;;;;;;7813506;28;20214;-51
2022/01/22 08:12:55;;;;;;;5.90;3.20;;;20.30;61.50;;;;;;7818708;28;20718;-50
2022/01/22 08:16:41;;;;;;;9.82;3.42;;;20.30;61.60;;;;;;7812340;28;20199;-50
2022/01/22 08:20:27;;;;;;;4.32;2.80;;;20.30;61.50;;;;;;7808287;28;20207;-49
2022/01/22 08:24:18;;;;;;;6.18;2.88;;;20.30;61.50;;;;;;7810750;28;20189;-54
2022/01/22 08:32:05;;;;;;;4.40;3.20;;;20.30;61.20;;;;;;7809199;28;20206;-49
2022/01/22 08:35:53;;;;;;;3.30;2.53;;;20.30;61.10;;;;;;7809178;28;20170;-49
2022/01/22 08:39:39;;;;;;;4.05;2.63;;;20.30;61.20;;;;;;7822350;28;20213;-49
2022/01/22 08:43:26;;;;;;;5.53;2.60;;;20.20;61.10;;;;;;7834670;28;20201;-49
2022/01/22 08:47:11;;;;;;;5.30;2.70;;;20.20;61.10;;;;;;7818762;28;20205;-52
2022/01/22 08:50:58;;;;;;;5.78;2.55;;;20.20;61.10;;;;;;7830782;28;20225;-53
2022/01/22 08:54:47;;;;;;;3.53;2.75;;;20.20;61.30;;;;;;7841249;28;20557;-54
2022/01/22 08:58:33;;;;;;;4.43;3.10;;;20.20;61.40;;;;;;7816908;28;20233;-49
2022/01/22 09:02:20;;;;;;;4.13;2.90;;;20.20;61.40;;;;;;7812992;28;20258;-50
2022/01/22 09:06:07;;;;;;;5.50;2.65;;;20.20;61.50;;;;;;7812251;28;20190;-49
2022/01/22 09:09:52;;;;;;;3.65;2.60;;;20.20;62.50;;;;;;7808083;28;20291;-50
2022/01/22 09:13:38;;;;;;;5.07;2.30;;;20.20;61.60;;;;;;7808338;28;20183;-51
2022/01/22 09:17:24;;;;;;;4.03;2.40;;;20.20;61.50;;;;;;7808387;28;20182;-51
2022/01/22 09:21:10;;;;;;;3.00;2.15;;;20.20;61.30;;;;;;7808251;28;20252;-52
2022/01/22 09:24:55;;;;;;;4.78;2.40;;;20.20;61.40;;;;;;7808644;28;20775;-51
2022/01/22 09:28:42;;;;;;;3.45;2.30;;;20.20;61.40;;;;;;7807970;28;20551;-50
2022/01/22 09:32:28;;;;;;;2.92;2.13;;;20.20;61.40;;;;;;7808048;28;20579;-53
2022/01/22 09:36:14;;;;;;;4.55;2.08;;;20.10;61.20;;;;;;7807922;28;20601;-51
2022/01/22 09:40:00;;;;;;;4.50;2.70;;;20.10;61.40;;;;;;7807192;28;20202;-50
2022/01/22 09:43:45;;;;;;;7.80;2.58;;;20.10;61.40;;;;;;7807476;28;20217;-50
2022/01/22 09:47:32;;;;;;;3.05;2.30;;;20.10;61.20;;;;;;7806981;28;20578;-54
2022/01/22 09:51:18;;;;;;;4.30;2.17;;;20.10;61.20;;;;;;7834547;28;20214;-54
2022/01/22 09:55:03;;;;;;;7.63;2.30;;;20.10;61.20;;;;;;7838359;28;20249;-50
2022/01/22 09:58:49;;;;;;;4.57;2.45;;;20.10;61.10;;;;;;7817176;28;20210;-51
2022/01/22 10:02:42;;;;;;;3.00;2.05;;;20.10;61.10;;;;;;7807237;28;20603;-50
2022/01/22 10:06:31;;;;;;;5.72;2.40;;;20.10;61.10;;;;;;7807088;28;20620;-50
2022/01/22 10:10:16;;;;;;;3.38;2.30;;;20.10;61.10;;;;;;7810914;28;20202;-51
2022/01/22 10:14:02;;;;;;;2.38;2.10;;;20.10;61.20;;;;;;7813324;28;20209;-50
2022/01/22 10:17:49;;;;;;;6.18;2.40;;;20.10;61.10;;;;;;7812915;28;20230;-52
2022/01/22 10:21:36;;;;;;;3.15;2.17;;;20.10;61.10;;;;;;7813260;28;20217;-50
2022/01/22 10:25:24;;;;;;;4.45;2.20;;;20.10;61.10;;;;;;7812744;28;20236;-50
2022/01/22 10:29:09;;;;;;;8.27;2.50;;;20.10;61.10;;;;;;7812454;28;20205;-50
2022/01/22 10:33:06;;;;;;;6.32;2.25;;;20.10;61.10;;;;;;7812789;28;20202;-51
2022/01/22 10:36:59;;;;;;;4.78;2.33;;;20.10;61.10;;;;;;7812813;28;20178;-50
2022/01/22 10:40:46;;;;;;;3.17;1.95;;;20.10;61.00;;;;;;7841028;28;20279;-53
2022/01/22 10:44:47;;;;;;;7.22;2.20;;;20.10;61.00;;;;;;7843418;28;20181;-50
2022/01/22 10:48:33;;;;;;;4.25;2.03;;;20.10;61.00;;;;;;7841775;28;20686;-51
2022/01/22 10:52:18;;;;;;;3.15;2.20;;;20.10;61.00;;;;;;7843224;28;20263;-51
2022/01/22 10:56:06;;;;;;;8.90;2.28;;;20.10;60.90;;;;;;7843052;28;20175;-50
2022/01/22 10:59:55;;;;;;;6.40;2.00;;;20.10;61.00;;;;;;7842657;28;20205;-52
2022/01/22 11:03:41;;;;;;;6.30;2.00;;;20.10;60.90;;;;;;7843041;28;20178;-49
2022/01/22 11:07:27;;;;;;;5.38;2.00;;;20.10;61.10;;;;;;7842928;28;20267;-50
2022/01/22 11:11:12;;;;;;;5.47;2.25;;;20.10;61.00;;;;;;7842834;28;20281;-50
2022/01/22 11:14:57;;;;;;;6.28;1.90;;;20.10;60.80;;;;;;7842718;28;20174;-51
2022/01/22 11:18:47;;;;;;;11.23;1.90;;;20.00;60.70;;;;;;7842298;28;20206;-50
2022/01/22 11:22:33;;;;;;;5.80;1.83;;;20.10;60.80;;;;;;7841251;28;20174;-50
2022/01/22 11:26:20;;;;;;;5.05;1.90;;;20.00;60.80;;;;;;7842245;28;20564;-50
2022/01/22 11:30:06;;;;;;;6.93;2.15;;;20.10;60.90;;;;;;7841852;28;20210;-51
2022/01/22 11:33:54;;;;;;;8.60;2.30;;;20.10;61.00;;;;;;7812942;28;20170;-49
2022/01/22 11:37:45;;;;;;;5.13;1.75;;;20.10;61.10;;;;;;7810605;28;20190;-50
2022/01/22 11:41:32;;;;;;;4.90;1.73;;;20.10;61.10;;;;;;7810878;28;20209;-49
2022/01/22 11:45:54;;;;;;;3.83;1.92;;;20.10;61.10;;;;;;7810717;28;20309;-51
2022/01/22 11:49:40;;;;;;;3.45;1.70;;;20.10;60.90;;;;;;7810221;28;20190;-53
2022/01/22 11:53:32;;;;;;;6.97;1.90;;;20.10;60.80;;;;;;7810439;28;20171;-49
2022/01/22 11:57:19;;;;;;;2.65;1.60;;;20.10;60.90;;;;;;7810453;28;20194;-53
2022/01/22 12:01:04;;;;;;;5.63;2.03;;;20.10;61.10;;;;;;7809827;28;20174;-50
2022/01/22 12:05:00;;;;;;;4.90;1.58;;;20.10;61.10;;;;;;7810124;28;20265;-49
2022/01/22 12:09:24;;;;;;;4.68;1.88;;;20.10;61.20;;;;;;7809777;28;20190;-50
2022/01/22 12:17:58;;;;;;;26.27;3.92;;;20.10;61.10;;;;;;7809675;28;20569;-50
2022/01/22 12:21:44;;;;;;;15.82;3.58;;;20.10;61.40;;;;;;7809542;28;20546;-51
2022/01/22 12:25:29;;;;;;;20.95;4.18;;;20.10;61.20;;;;;;7809558;28;20178;-51
2022/01/22 12:29:35;;;;;;;31.20;5.78;;;20.10;61.10;;;;;;7809178;28;20409;-50
2022/01/22 12:33:30;;;;;;;29.83;5.28;;;20.10;61.10;;;;;;7809301;28;20236;-50
2022/01/22 12:37:18;;;;;;;21.23;4.55;;;20.10;60.80;;;;;;7809193;28;20170;-50
2022/01/22 12:41:27;;;;;;;46.65;4.90;;;20.10;61.00;;;;;;7808952;28;20178;-51
2022/01/22 12:45:13;;;;;;;277.65;13.32;;;20.10;60.70;;;;;;7809196;28;20194;-51
2022/01/22 12:49:00;;;;;;;90.53;8.80;;;20.10;60.80;;;;;;7808926;28;20210;-50
2022/01/22 12:52:47;;;;;;;99.72;9.63;;;20.10;60.50;;;;;;7808828;28;20199;-51
2022/01/22 13:00:21;;;;;;;67.75;6.78;;;20.10;61.20;;;;;;7808293;28;20220;-50
2022/01/22 13:04:08;;;;;;;60.63;6.20;;;20.10;61.10;;;;;;7808590;28;20190;-52
2022/01/22 13:07:57;;;;;;;37.53;6.43;;;20.10;61.10;;;;;;7807999;28;20554;-50
2022/01/22 13:11:48;;;;;;;42.20;5.40;;;20.10;61.10;;;;;;7815927;28;20259;-51
2022/01/22 13:15:35;;;;;;;38.67;4.80;;;20.10;61.10;;;;;;7839005;28;20173;-52
2022/01/22 13:19:22;;;;;;;30.33;4.03;;;20.10;61.10;;;;;;7838590;28;20244;-51
2022/01/22 13:23:15;;;;;;;29.30;4.43;;;20.10;61.20;;;;;;7836504;28;20186;-50
2022/01/22 13:27:13;;;;;;;37.08;4.43;;;20.10;61.40;;;;;;7837642;28;20232;-50
2022/01/22 13:31:04;;;;;;;33.20;5.07;;;20.10;61.20;;;;;;7837799;28;20206;-51
2022/01/22 13:39:22;;;;;;;24.25;4.32;;;20.10;60.90;;;;;;7804959;28;20767;-50
2022/01/22 13:47:46;;;;;;;16.27;3.70;;;20.10;60.80;;;;;;7805250;28;20301;-50
2022/01/22 13:51:32;;;;;;;12.07;3.22;;;20.10;60.90;;;;;;7805731;28;20198;-53
2022/01/22 13:55:18;;;;;;;14.60;3.20;;;20.20;61.10;;;;;;7812938;28;20552;-53
2022/01/22 13:59:16;;;;;;;17.10;3.42;;;20.10;61.10;;;;;;7836705;28;20190;-54
2022/01/22 14:03:21;;;;;;;12.68;3.53;;;20.10;61.20;;;;;;7818115;28;20208;-50
2022/01/22 14:07:48;;;;;;;20.45;4.53;;;20.20;61.30;;;;;;7806869;28;20186;-51
2022/01/22 14:11:34;;;;;;;23.33;4.45;;;20.20;61.10;;;;;;7797243;28;20228;-51
2022/01/22 14:15:38;;;;;;;23.75;3.92;;;20.20;61.40;;;;;;7802620;28;20195;-50
2022/01/22 14:19:30;;;;;;;21.10;3.45;;;20.20;61.10;;;;;;7803037;28;20199;-50
2022/01/22 14:23:16;;;;;;;16.20;4.10;;;20.20;61.10;;;;;;7803528;28;20193;-49
2022/01/22 14:27:02;;;;;;;15.43;3.15;;;20.20;61.20;;;;;;7803761;28;20191;-50
2022/01/22 14:30:48;;;;;;;9.40;2.70;;;20.20;61.40;;;;;;7803247;28;20305;-50
2022/01/22 14:34:39;;;;;;;21.65;4.55;;;20.20;61.40;;;;;;7803473;28;20182;-50
2022/01/22 14:46:57;;;;;;;11.23;3.83;;;20.30;61.50;;;;;;7829794;28;20194;-50
2022/01/22 14:50:42;;;;;;;10.25;3.88;;;20.40;61.50;;;;;;7805839;28;20233;-50
2022/01/22 14:54:32;;;;;;;11.68;3.78;;;20.30;61.30;;;;;;7806497;28;20179;-50
2022/01/22 14:58:18;;;;;;;12.93;3.42;;;20.40;61.50;;;;;;7811450;28;20244;-50
2022/01/22 15:02:04;;;;;;;9.07;4.15;;;20.40;61.60;;;;;;7812032;28;20183;-50
2022/01/22 15:05:50;;;;;;;11.50;4.18;;;20.50;61.50;;;;;;7811796;28;20546;-51
2022/01/22 15:09:37;;;;;;;13.82;4.38;;;20.50;61.40;;;;;;7811422;28;20564;-50
2022/01/22 15:13:22;;;;;;;9.57;4.43;;;20.60;61.50;;;;;;7811641;28;20672;-52
2022/01/22 15:20:54;;;;;;;10.30;3.97;;;20.60;61.40;;;;;;7811167;28;20178;-52
2022/01/22 15:24:41;;;;;;;8.77;3.65;;;20.60;61.20;;;;;;7811404;28;20197;-52
2022/01/22 15:28:32;;;;;;;6.45;3.47;;;20.70;61.30;;;;;;7816513;28;20232;-55
2022/01/22 15:32:32;;;;;;;6.60;3.63;;;20.70;61.30;;;;;;7842070;28;20209;-52
2022/01/22 15:36:17;;;;;;;7.18;3.72;;;20.70;61.10;;;;;;7841952;28;20261;-50
2022/01/22 15:40:08;;;;;;;6.97;3.50;;;20.80;61.10;;;;;;7841515;28;20248;-50
2022/01/22 15:43:53;;;;;;;11.63;3.95;;;20.90;61.10;;;;;;7841769;28;20174;-53
2022/01/22 15:47:39;;;;;;;88.45;11.93;;;20.90;61.00;;;;;;7841124;28;20220;-52
2022/01/22 15:51:24;;;;;;;47.60;7.95;;;20.90;61.00;;;;;;7841467;28;20205;-53
2022/01/22 15:55:10;;;;;;;33.10;6.00;;;21.00;60.90;;;;;;7841463;28;20178;-53
2022/01/22 15:58:56;;;;;;;39.13;6.43;;;21.00;60.70;;;;;;7841127;28;20198;-51
2022/01/22 16:02:42;;;;;;;25.20;5.45;;;21.10;60.70;;;;;;7841498;28;20185;-54
2022/01/22 16:06:44;;;;;;;30.77;6.30;;;21.10;60.50;;;;;;7840942;28;20186;-50
2022/01/22 16:10:30;;;;;;;22.80;5.60;;;21.20;60.40;;;;;;7840703;28;20262;-50
2022/01/22 16:14:16;;;;;;;26.90;5.82;;;21.30;60.20;;;;;;7840899;28;20231;-52
2022/01/22 16:18:02;;;;;;;14.63;4.78;;;21.30;60.20;;;;;;7840537;28;20336;-52
2022/01/22 16:21:48;;;;;;;19.60;4.72;;;21.40;60.10;;;;;;7837402;28;20191;-51
2022/01/22 16:25:33;;;;;;;23.13;4.30;;;21.40;60.10;;;;;;7808494;28;20232;-50
2022/01/22 16:29:19;;;;;;;19.42;4.57;;;21.50;60.00;;;;;;7809179;28;20206;-50
2022/01/22 16:33:05;;;;;;;16.45;4.85;;;21.60;60.00;;;;;;7809212;28;20203;-50
2022/01/22 16:36:50;;;;;;;15.95;4.18;;;21.60;59.90;;;;;;7809265;28;20181;-50
2022/01/22 16:40:36;;;;;;;13.15;4.57;;;21.70;59.90;;;;;;7808924;28;20201;-54
2022/01/22 16:56:21;;;;;;;12.50;4.70;;;21.80;59.50;;;;;;7809132;28;20186;-49
2022/01/22 17:00:08;;;;;;;16.75;4.90;;;21.90;59.60;;;;;;7814381;28;20419;-49
2022/01/22 17:03:55;;;;;;;27.40;6.00;;;21.80;60.10;;;;;;7815629;28;20652;-50
2022/01/22 17:08:33;;;;;;;20.38;6.03;;;21.80;58.60;;;;;;7808130;28;20680;-50
2022/01/22 17:15:58;;;;;;;14.18;6.15;;;21.90;58.80;;;;;;7833849;28;20182;-49
2022/01/22 17:19:43;;;;;;;16.17;6.38;;;22.00;58.70;;;;;;7828293;28;20248;-52
2022/01/22 17:23:29;;;;;;;24.30;6.55;;;22.10;59.20;;;;;;7835764;28;20186;-52
2022/01/22 17:27:19;;;;;;;20.85;6.85;;;22.10;58.30;;;;;;7807825;28;20202;-49
2022/01/22 17:31:04;;;;;;;16.65;7.20;;;22.20;58.40;;;;;;7807624;28;20198;-53
2022/01/22 17:34:50;;;;;;;14.20;6.85;;;22.30;58.30;;;;;;7807659;28;20636;-49
2022/01/22 17:38:35;;;;;;;16.17;7.22;;;22.30;58.30;;;;;;7807215;28;20206;-51
2022/01/22 17:42:24;;;;;;;25.83;7.82;;;22.40;58.40;;;;;;7811527;28;20178;-50
2022/01/22 17:46:10;;;;;;;28.55;8.38;;;22.50;58.80;;;;;;7807697;28;20206;-51
2022/01/22 17:49:55;;;;;;;19.58;7.03;;;22.60;58.70;;;;;;7807547;28;20203;-49
2022/01/22 17:53:41;;;;;;;13.13;6.65;;;22.70;58.90;;;;;;7807590;28;20174;-53
2022/01/22 17:57:27;;;;;;;14.73;7.75;;;22.80;58.90;;;;;;7807132;28;20178;-53
2022/01/22 18:01:13;;;;;;;25.65;7.25;;;23.00;59.30;;;;;;7807191;28;20233;-53
2022/01/22 18:04:59;;;;;;;14.18;6.32;;;23.20;59.20;;;;;;7807293;28;20178;-52
2022/01/22 18:08:45;;;;;;;15.25;6.65;;;23.30;59.30;;;;;;7806946;28;20301;-52
2022/01/22 18:12:31;;;;;;;18.27;6.47;;;23.40;59.30;;;;;;7807016;28;20202;-49
2022/01/22 18:16:16;;;;;;;12.02;6.03;;;23.50;59.30;;;;;;7807071;28;20167;-49
2022/01/22 18:20:02;;;;;;;12.77;5.55;;;23.70;60.00;;;;;;7806661;28;20701;-49
2022/01/22 18:23:48;;;;;;;12.80;5.93;;;23.70;60.00;;;;;;7806935;28;20576;-50
2022/01/22 18:27:33;;;;;;;13.93;5.47;;;23.80;60.50;;;;;;7806523;28;20321;-52
2022/01/22 18:31:19;;;;;;;12.93;4.75;;;23.80;61.80;;;;;;7810885;28;20209;-51
2022/01/22 18:35:05;;;;;;;14.50;4.93;;;23.90;62.20;;;;;;7812853;28;20254;-54
2022/01/22 18:38:50;;;;;;;11.32;4.70;;;23.90;62.80;;;;;;7812310;28;20194;-49
2022/01/22 18:42:39;;;;;;;17.73;5.75;;;23.90;60.80;;;;;;7812706;28;20186;-49
2022/01/22 18:46:25;;;;;;;25.38;6.07;;;23.70;59.20;;;;;;7812537;28;20214;-49
2022/01/22 18:50:10;;;;;;;13.85;5.95;;;23.70;61.00;;;;;;7812183;28;20218;-49
2022/01/22 18:53:56;;;;;;;17.52;5.53;;;23.60;61.30;;;;;;7812494;28;20179;-49
2022/01/22 18:57:42;;;;;;;16.52;5.40;;;23.60;62.00;;;;;;7812103;28;20199;-52
2022/01/22 19:01:29;;;;;;;21.98;4.97;;;23.60;63.50;;;;;;7828694;28;20247;-50
2022/01/22 19:05:15;;;;;;;9.40;5.78;;;23.60;64.10;;;;;;7813531;28;20197;-49
2022/01/22 19:09:00;;;;;;;9.68;4.68;;;23.60;65.00;;;;;;7810791;28;20191;-50
2022/01/22 19:12:46;;;;;;;18.85;5.18;;;23.60;65.50;;;;;;7810869;28;20575;-52
2022/01/22 19:16:32;;;;;;;32.35;7.47;;;23.60;65.40;;;;;;7810871;28;20715;-49
2022/01/22 19:20:18;;;;;;;16.48;5.72;;;23.60;63.00;;;;;;7810339;28;20676;-51
2022/01/22 19:24:17;;;;;;;25.88;5.85;;;23.60;66.50;;;;;;7822128;28;20189;-51
2022/01/22 19:28:07;;;;;;;21.70;5.35;;;23.70;67.70;;;;;;7840269;28;20186;-52
2022/01/22 19:31:53;;;;;;;27.48;6.50;;;23.80;68.20;;;;;;7838293;28;20244;-49
2022/01/22 19:35:41;;;;;;;17.08;5.47;;;23.90;66.50;;;;;;7809416;28;20174;-50
2022/01/22 19:39:28;;;;;;;14.20;5.93;;;23.90;69.40;;;;;;7822156;28;20193;-52
2022/01/22 19:43:16;;;;;;;14.38;5.20;;;23.90;69.80;;;;;;7839197;28;20667;-53
2022/01/22 19:47:04;;;;;;;22.52;5.97;;;24.00;70.20;;;;;;7840689;28;20193;-49
2022/01/22 19:50:50;;;;;;;12.43;5.72;;;24.10;70.80;;;;;;7840207;28;20297;-52
2022/01/22 19:54:35;;;;;;;15.90;5.82;;;24.10;70.80;;;;;;7840280;28;20185;-53
2022/01/22 19:58:22;;;;;;;19.23;5.28;;;24.20;70.80;;;;;;7839690;28;20564;-52
2022/01/22 20:02:08;;;;;;;15.10;5.25;;;24.20;70.90;;;;;;7839545;28;20604;-50
2022/01/22 20:05:54;;;;;;;8.48;4.55;;;24.20;70.70;;;;;;7840153;28;20177;-52
2022/01/22 20:09:40;;;;;;;17.17;6.00;;;24.10;70.50;;;;;;7825109;28;20206;-51
2022/01/22 20:13:27;;;;;;;15.20;5.30;;;24.20;70.10;;;;;;7808837;28;20609;-51
2022/01/22 20:17:13;;;;;;;35.22;5.35;;;24.20;70.40;;;;;;7808948;28;20186;-49
2022/01/22 20:21:01;;;;;;;22.45;5.50;;;24.20;70.40;;;;;;7808019;28;20199;-49
2022/01/22 20:24:47;;;;;;;12.20;4.50;;;24.20;70.20;;;;;;7823670;28;20786;-49
2022/01/22 20:28:32;;;;;;;10.88;4.35;;;24.20;70.20;;;;;;7838974;28;20254;-52
2022/01/22 20:32:18;;;;;;;14.18;4.80;;;24.10;70.30;;;;;;7839146;28;20761;-48
2022/01/22 20:36:04;;;;;;;18.05;4.75;;;24.10;70.20;;;;;;7839041;28;20167;-50
2022/01/22 20:39:51;;;;;;;14.27;4.72;;;24.00;70.10;;;;;;7826388;28;20198;-50
2022/01/22 20:43:39;;;;;;;14.68;4.18;;;24.00;70.10;;;;;;7810240;28;20324;-52
2022/01/22 20:47:27;;;;;;;8.15;3.95;;;24.00;70.10;;;;;;7807517;28;20672;-51
2022/01/22 20:51:12;;;;;;;7.22;4.38;;;24.00;70.20;;;;;;7810702;28;20214;-52
2022/01/22 20:54:58;;;;;;;9.70;3.97;;;24.00;70.10;;;;;;7824356;28;20197;-49
2022/01/22 20:58:43;;;;;;;9.48;3.92;;;24.00;70.10;;;;;;7837976;28;20197;-49
2022/01/22 21:02:31;;;;;;;8.75;4.07;;;23.90;70.00;;;;;;7837555;28;20238;-49
2022/01/22 21:06:16;;;;;;;7.47;3.78;;;23.90;70.00;;;;;;7808448;28;20193;-52
2022/01/22 21:10:03;;;;;;;10.35;4.15;;;23.90;69.80;;;;;;7814880;28;20276;-49
2022/01/22 21:13:49;;;;;;;22.63;3.58;;;23.80;69.80;;;;;;7837752;28;20663;-49
2022/01/22 21:17:35;;;;;;;13.45;4.13;;;23.80;70.00;;;;;;7837717;28;20259;-49
2022/01/22 21:21:26;;;;;;;9.35;3.80;;;23.80;69.80;;;;;;7837188;28;20182;-49
2022/01/22 21:25:11;;;;;;;8.48;3.92;;;23.80;69.80;;;;;;7816493;28;20607;-52
2022/01/22 21:28:57;;;;;;;13.68;4.10;;;23.80;69.80;;;;;;7805914;28;20312;-51
2022/01/22 21:32:43;;;;;;;31.05;4.35;;;23.70;70.50;;;;;;7806665;28;20220;-50
2022/01/22 21:36:32;;;;;;;43.65;4.60;;;23.70;69.40;;;;;;7829504;28;20193;-49
2022/01/22 21:40:18;;;;;;;34.85;4.85;;;23.70;69.50;;;;;;7819303;28;20237;-52
2022/01/22 21:44:04;;;;;;;19.23;4.35;;;23.70;69.60;;;;;;7837354;28;20190;-53